Flight Track Log - Related Links

Times and Time Zones

All times are in EDT time to prevent confusion due to time zone crossing. See the UAL4849 flight status page for this flight to view local times or setup timezone preferences in your user account.

Time Position Orientation Groundspeed Altitude Reporting Facility
EDT Latitude Longitude Course Direction KTS MPH feet Rate Location/Type
Sat 10:46:24 AM 43.1036 -77.6914 124° Southeast 126 145 1,200  Level Cleveland Center
Sat 10:47:31 AM 43.0653 -77.6647 153° Southeast 221 254 2,500 1,257 Climbing Cleveland Center
Sat 10:48:09 AM 43.0517 -77.6197 112° Southeast 211 243 3,400 1,408 Climbing Cleveland Center
Sat 10:49:09 AM 43.0289 -77.5469 113° Southeast 211 243 4,800 1,150 Climbing Cleveland Center
Sat 10:50:09 AM 42.9997 -77.4717 118° Southeast 217 250 5,700 1,150 Climbing Cleveland Center
Sat 10:51:00 AM 42.8862 -77.1389 124° Southeast  Level FlightAware Approximate
Sat 10:51:09 AM 42.9706 -77.3939 117° Southeast 223 257 7,100  Level Cleveland Center
Sat 10:52:09 AM 42.9433 -77.3158 115° Southeast 223 257 8,400 1,250 Climbing Cleveland Center
Sat 10:53:09 AM 42.9119 -77.2381 119° Southeast 223 257 9,600 1,088 Climbing Cleveland Center
Sat 10:55:00 AM 42.8608 -77.0881 115° Southeast 239 275 11,500 1,030 Climbing New York Center
Sat 10:55:58 AM 42.8297 -77.0086 118° Southeast 239 275 12,500 814 Climbing New York Center
Sat 10:56:58 AM 42.7964 -76.9264 119° Southeast 239 275 13,100 248 Climbing New York Center
Sat 10:57:59 AM 42.7553 -76.8378 124° Southeast 256 295 13,000 -99 Descending New York Center
Sat 10:58:00 AM 42.7523 -76.8379 124° Southeast  Level FlightAware Approximate
Sat 10:58:59 AM 42.7161 -76.7439 120° Southeast 278 320 12,900  Level New York Center
Sat 11:00:00 AM 42.6731 -76.6497 122° Southeast 285 328 13,100 50 Climbing New York Center
Sat 11:01:00 AM 42.6297 -76.5556 122° Southeast 291 335 13,000 -51 Descending New York Center
Sat 11:01:58 AM 42.5961 -76.4792 121° Southeast 291 335 13,000  Level New York Center
Sat 11:02:48 AM 42.5508 -76.3836 123° Southeast 290 334 13,000  Level Boston Center
Sat 11:03:48 AM 42.5100 -76.2936 122° Southeast 276 318 13,000  Level Boston Center
Sat 11:04:48 AM 42.4736 -76.2039 119° Southeast 283 326 13,000  Level Boston Center
Sat 11:05:48 AM 42.4306 -76.1114 122° Southeast 289 333 13,000  Level Boston Center
Sat 11:06:48 AM 42.3858 -76.0158 122° Southeast 301 346 13,000  Level Boston Center
Sat 11:07:48 AM 42.3428 -75.9208 121° Southeast 291 335 13,000  Level Boston Center
Sat 11:08:48 AM 42.2997 -75.8256 121° Southeast 291 335 13,000  Level Boston Center
Sat 11:09:48 AM 42.2508 -75.7219 122° Southeast 291 335 13,000  Level Boston Center
Sat 11:10:48 AM 42.2097 -75.6272 120° Southeast 291 335 13,000  Level Boston Center
Sat 11:11:48 AM 42.1664 -75.5356 123° Southeast 285 328 13,000  Level Boston Center
Sat 11:12:48 AM 42.1250 -75.4439 121° Southeast 285 328 13,000  Level Boston Center
Sat 11:13:48 AM 42.0817 -75.3522 122° Southeast 285 328 13,000  Level Boston Center
Sat 11:14:48 AM 42.0403 -75.2581 121° Southeast 285 328 13,000  Level Boston Center
Sat 11:15:48 AM 42.0031 -75.1586 117° Southeast 285 328 13,000 -150 Level Boston Center
Sat 11:16:48 AM 41.9717 -75.0706 116° Southeast 296 341 12,700 -700 Descending Boston Center
Sat 11:17:48 AM 41.9264 -74.9572 118° Southeast 304 350 11,600 -1,050 Descending Boston Center
Sat 11:18:48 AM 41.8867 -74.8692 121° Southeast 309 356 10,600 -1,200 Descending Boston Center
Sat 11:19:48 AM 41.8106 -74.8244 156° South 269 310 9,200 -1,250 Descending Boston Center
Sat 11:20:48 AM 41.7486 -74.7858 155° Southeast 269 310 8,100 -1,100 Descending Boston Center
Sat 11:21:48 AM 41.6744 -74.7442 157° South 269 310 7,000 -550 Descending Boston Center
Sat 11:22:48 AM 41.6147 -74.7086 156° South 269 310 7,000 -100 Level Boston Center
Sat 11:23:48 AM 41.5428 -74.6700 158° South 269 310 6,800 -550 Descending Boston Center
Sat 11:24:48 AM 41.4803 -74.6622 175° South 259 298 5,900 -400 Descending Boston Center
Sat 11:25:48 AM 41.4056 -74.6486 172° South 253 291 6,000 92 Climbing Boston Center
Sat 11:26:59 AM 41.3333 -74.6333 171° South 248 285 6,100 -183 Climbing New York TRACON
Sat 11:27:59 AM 41.2667 -74.6167 169° South 244 281 5,600 -550 Descending New York TRACON
Sat 11:28:59 AM 41.2000 -74.5667 151° Southeast 264 304 5,000 -316 Descending New York TRACON
Sat 11:29:53 AM 41.1667 -74.5000 124° Southeast 262 302 5,000  Level New York TRACON
Sat 11:30:59 AM 41.1000 -74.4167 137° Southeast 260 299 5,000  Level New York TRACON
Sat 11:31:53 AM 41.0667 -74.3667 131° Southeast 250 288 5,000  Level New York TRACON
Sat 11:32:53 AM 41.0167 -74.3000 135° Southeast 248 285 5,000 -381 Level New York TRACON
Sat 11:33:59 AM 40.9667 -74.2167 128° Southeast 251 289 4,200 -500 Descending New York TRACON
Sat 11:34:53 AM 40.9167 -74.1667 143° Southeast 240 276 4,000 -316 Descending New York TRACON
Sat 11:35:53 AM 40.8833 -74.1000 123° Southeast 211 243 3,600 -700 Descending New York TRACON
Sat 11:36:53 AM 40.8333 -74.0833 166° South 196 226 2,600 -750 Descending New York TRACON
Sat 11:37:53 AM 40.7833 -74.0833 180° South 184 212 2,100 -500 Descending New York TRACON

Login

Don't have an account? Register now (free) for customized features, flight alerts, and more!